Ens, Netherlands
Current Conditions -  °F | °C
As of 4:55 PM on Thursday 27 Nov 2014 (Local Time) from EHDL Reporting Station
Drizzle Drizzle  
Wind Chill: 41°   Ceiling: 6600
Heat Index: 45°   Visibility: 4mi
Dew Point: 43°   Wind: 7mph
Humidity: 93%   Direction: 100°E
Pressure: 29.74"   Gusts: NA
Location:  52.64°N, 5.83°E
Report Text: EHDL 271555Z AUTO 10006KT 7000 DZ FEW049 SCT057 BKN066 07/06 Q1007 WHT
Loading
Personal Weather Stations






























Interactive Weather Map New forecast layout! Learn more

10-Day Weather Forecast

Advertisements
Track Severe Weather on mobile